createdAt,value
2018-07-02T00:00:39.500Z,19.24
2018-07-02T00:03:08.194Z,19.17
2018-07-02T00:05:47.865Z,19.14
2018-07-02T00:08:16.520Z,19.06
2018-07-02T00:10:45.191Z,18.97
2018-07-02T00:13:13.873Z,18.94
2018-07-02T00:15:42.614Z,18.91
2018-07-02T00:18:11.059Z,18.89
2018-07-02T00:20:39.660Z,18.88
2018-07-02T00:23:08.217Z,18.79
2018-07-02T00:25:36.885Z,18.70
2018-07-02T00:28:05.432Z,18.71
2018-07-02T00:30:34.143Z,18.66
2018-07-02T00:33:02.835Z,18.62
2018-07-02T00:35:32.046Z,18.62
2018-07-02T00:38:00.694Z,18.57
2018-07-02T00:40:29.374Z,18.53
2018-07-02T00:42:57.983Z,18.44
2018-07-02T00:45:26.527Z,18.41
2018-07-02T00:47:55.062Z,18.33
2018-07-02T00:50:23.635Z,18.21
2018-07-02T00:52:52.331Z,18.22
2018-07-02T00:55:20.864Z,18.16
2018-07-02T00:57:49.558Z,18.15
2018-07-02T01:00:18.303Z,18.16
2018-07-02T01:02:46.974Z,18.13
2018-07-02T01:05:16.465Z,18.08
2018-07-02T01:07:45.543Z,18.06
2018-07-02T01:10:14.384Z,18.06
2018-07-02T01:12:42.976Z,18.02
2018-07-02T01:15:12.335Z,17.96
2018-07-02T01:17:40.975Z,17.95
2018-07-02T01:20:09.562Z,17.92
2018-07-02T01:22:38.066Z,17.89
2018-07-02T01:25:06.666Z,17.90
2018-07-02T01:27:35.286Z,17.84
2018-07-02T01:30:05.214Z,17.84
2018-07-02T01:32:33.773Z,17.83
2018-07-02T01:35:02.674Z,17.77
2018-07-02T01:37:31.418Z,17.77
2018-07-02T01:40:00.323Z,17.70
2018-07-02T01:42:29.440Z,17.73
2018-07-02T01:44:58.289Z,17.68
2018-07-02T01:47:26.884Z,17.66
2018-07-02T01:49:55.392Z,17.62
2018-07-02T01:52:23.855Z,17.56
2018-07-02T01:54:52.577Z,17.55
2018-07-02T01:57:22.200Z,17.48
2018-07-02T01:59:50.806Z,17.44
2018-07-02T02:02:19.393Z,17.44
2018-07-02T02:04:47.930Z,17.42
2018-07-02T02:07:16.992Z,17.43
2018-07-02T02:09:46.485Z,17.33
2018-07-02T02:12:16.164Z,17.24
2018-07-02T02:14:45.725Z,17.24
2018-07-02T02:17:14.388Z,17.26
2018-07-02T02:19:43.052Z,17.20
2018-07-02T02:22:11.678Z,17.20
2018-07-02T02:24:40.242Z,17.27
2018-07-02T02:27:08.826Z,17.27
2018-07-02T02:29:37.351Z,17.25
2018-07-02T02:32:05.893Z,17.14
2018-07-02T02:34:34.420Z,17.15
2018-07-02T02:37:02.932Z,17.12
2018-07-02T02:39:31.476Z,17.06
2018-07-02T02:42:00.074Z,17.04
2018-07-02T02:44:28.820Z,17.01
2018-07-02T02:46:57.634Z,16.93
2018-07-02T02:49:28.209Z,16.85
2018-07-02T02:51:56.773Z,16.83
2018-07-02T02:54:25.410Z,16.82
2018-07-02T02:56:54.027Z,16.76
2018-07-02T02:59:23.144Z,16.77
2018-07-02T03:01:51.721Z,16.75
2018-07-02T03:04:20.352Z,16.66
2018-07-02T03:06:48.913Z,16.66
2018-07-02T03:09:17.645Z,16.57
2018-07-02T03:11:46.809Z,16.54
2018-07-02T03:14:15.435Z,16.61
2018-07-02T03:16:44.205Z,16.57
2018-07-02T03:19:14.902Z,16.41
2018-07-02T03:21:43.515Z,16.45
2018-07-02T03:24:13.042Z,16.39
2018-07-02T03:26:41.658Z,16.39
2018-07-02T03:29:10.707Z,16.30
2018-07-02T03:31:40.046Z,16.23
2018-07-02T03:34:08.724Z,16.20
2018-07-02T03:36:37.256Z,16.22
2018-07-02T03:39:07.944Z,16.27
2018-07-02T03:41:36.535Z,16.30
2018-07-02T03:44:05.546Z,16.32
2018-07-02T03:46:34.605Z,16.30
2018-07-02T03:49:04.562Z,16.31
2018-07-02T03:51:33.239Z,16.38
2018-07-02T03:54:02.499Z,16.37
2018-07-02T03:56:31.098Z,16.36
2018-07-02T03:58:59.996Z,16.24
2018-07-02T04:01:28.659Z,16.12
2018-07-02T04:03:57.290Z,16.09
2018-07-02T04:06:25.863Z,16.14
2018-07-02T04:08:54.499Z,16.19
2018-07-02T04:11:23.078Z,16.21
2018-07-02T04:13:52.570Z,16.18
2018-07-02T04:16:21.098Z,16.20
2018-07-02T04:18:49.687Z,16.22
2018-07-02T04:21:18.143Z,16.23
2018-07-02T04:23:46.683Z,16.23
2018-07-02T04:26:15.213Z,16.20
2018-07-02T04:28:43.779Z,16.15
2018-07-02T04:31:12.433Z,16.06
2018-07-02T04:33:40.972Z,16.08
2018-07-02T04:36:09.760Z,16.20
2018-07-02T04:38:38.431Z,16.31
2018-07-02T04:41:07.862Z,16.37
2018-07-02T04:43:36.511Z,16.44
2018-07-02T04:46:05.885Z,16.28
2018-07-02T04:48:34.515Z,16.09
2018-07-02T04:51:03.228Z,16.16
2018-07-02T04:53:31.753Z,16.23
2018-07-02T04:56:00.878Z,16.30
2018-07-02T04:58:29.496Z,16.34
2018-07-02T05:00:58.179Z,16.39
2018-07-02T05:03:26.876Z,16.35
2018-07-02T05:05:56.693Z,16.35
2018-07-02T05:08:25.562Z,16.39
2018-07-02T05:10:54.778Z,16.43
2018-07-02T05:13:24.134Z,16.45
2018-07-02T05:15:52.727Z,16.43
2018-07-02T05:18:21.415Z,16.37
2018-07-02T05:20:49.982Z,16.45
2018-07-02T05:23:18.673Z,16.45
2018-07-02T05:25:48.117Z,16.41
2018-07-02T05:28:16.847Z,16.49
2018-07-02T05:30:46.341Z,16.66
2018-07-02T05:33:15.258Z,16.72
2018-07-02T05:35:43.722Z,16.82
2018-07-02T05:38:12.244Z,16.92
2018-07-02T05:40:40.748Z,17.02
2018-07-02T05:43:09.359Z,17.01
2018-07-02T05:45:37.958Z,17.10
2018-07-02T05:48:06.587Z,17.10
2018-07-02T05:50:35.156Z,17.14
2018-07-02T05:53:03.868Z,17.10
2018-07-02T05:55:32.581Z,17.13
2018-07-02T05:58:01.273Z,17.06
2018-07-02T06:00:29.831Z,17.07
2018-07-02T06:02:58.666Z,17.13
2018-07-02T06:05:27.303Z,17.21
2018-07-02T06:07:55.915Z,17.31
2018-07-02T06:10:24.928Z,17.33
2018-07-02T06:12:53.504Z,17.40
2018-07-02T06:15:31.392Z,17.50
2018-07-02T06:18:00.991Z,17.57
2018-07-02T06:20:30.349Z,17.63
2018-07-02T06:22:59.023Z,17.54
2018-07-02T06:25:27.968Z,17.58
2018-07-02T06:27:58.905Z,17.61
2018-07-02T06:30:28.657Z,17.64
2018-07-02T06:32:57.138Z,17.69
2018-07-02T06:35:25.910Z,17.79
2018-07-02T06:37:55.259Z,17.85
2018-07-02T06:40:23.865Z,17.93
2018-07-02T06:42:52.355Z,18.07
2018-07-02T06:45:21.165Z,18.14
2018-07-02T06:47:49.781Z,18.21
2018-07-02T06:50:18.335Z,18.16
2018-07-02T06:52:46.866Z,18.16
2018-07-02T06:55:16.327Z,18.16
2018-07-02T06:57:45.609Z,18.23
2018-07-02T07:00:14.648Z,18.30
2018-07-02T07:02:43.215Z,18.35
2018-07-02T07:05:11.869Z,18.45
2018-07-02T07:07:40.423Z,18.50
2018-07-02T07:10:08.989Z,18.51
2018-07-02T07:12:37.613Z,18.59
2018-07-02T07:15:08.055Z,18.74
2018-07-02T07:17:36.660Z,18.83
2018-07-02T07:20:05.860Z,18.90
2018-07-02T07:22:34.421Z,18.96
2018-07-02T07:25:03.513Z,19.04
2018-07-02T07:27:32.101Z,19.08
2018-07-02T07:30:00.678Z,18.97
2018-07-02T07:32:29.240Z,19.05
2018-07-02T07:34:57.780Z,19.07
2018-07-02T07:37:26.696Z,19.13
2018-07-02T07:39:55.361Z,19.22
2018-07-02T07:42:24.164Z,19.16
2018-07-02T07:44:52.836Z,19.15
2018-07-02T07:47:21.429Z,19.18
2018-07-02T07:49:50.041Z,19.23
2018-07-02T07:52:18.721Z,19.28
2018-07-02T07:54:47.408Z,19.37
2018-07-02T07:57:16.242Z,19.45
2018-07-02T07:59:44.832Z,19.60
2018-07-02T08:02:13.361Z,19.68
2018-07-02T08:04:42.510Z,19.77
2018-07-02T08:07:11.767Z,19.83
2018-07-02T08:09:40.522Z,19.92
2018-07-02T08:12:09.161Z,19.95
2018-07-02T08:14:37.794Z,20.01
2018-07-02T08:17:06.347Z,20.03
2018-07-02T08:19:35.184Z,20.15
2018-07-02T08:22:03.759Z,20.19
2018-07-02T08:24:32.326Z,20.28
2018-07-02T08:27:01.143Z,20.34
2018-07-02T08:29:30.616Z,20.28
2018-07-02T08:31:59.660Z,20.27
2018-07-02T08:34:28.178Z,20.33
2018-07-02T08:36:56.833Z,20.38
2018-07-02T08:39:25.464Z,20.41
2018-07-02T08:41:54.632Z,20.38
2018-07-02T08:44:23.550Z,20.43
2018-07-02T08:46:52.143Z,20.53
2018-07-02T08:49:20.779Z,20.59
2018-07-02T08:51:50.265Z,20.71
2018-07-02T08:54:18.808Z,20.75
2018-07-02T08:56:47.443Z,20.71
2018-07-02T08:59:16.435Z,20.78
2018-07-02T09:01:45.969Z,20.84
2018-07-02T09:04:15.103Z,20.93
2018-07-02T09:06:43.583Z,21.02
2018-07-02T09:09:12.870Z,21.09
2018-07-02T09:11:41.499Z,21.12
2018-07-02T09:14:10.084Z,21.20
2018-07-02T09:16:38.703Z,21.22
2018-07-02T09:19:08.418Z,21.36
2018-07-02T09:21:38.011Z,21.49
2018-07-02T09:24:06.924Z,21.55
2018-07-02T09:26:35.541Z,21.58
2018-07-02T16:19:09.966Z,32.56
2018-07-02T16:21:40.000Z,32.67
2018-07-02T16:24:09.391Z,32.79
2018-07-02T16:26:38.413Z,32.87
2018-07-02T16:29:07.581Z,32.72
2018-07-02T16:31:37.479Z,32.78
2018-07-02T16:34:06.731Z,32.40
2018-07-02T16:36:35.329Z,32.07
2018-07-02T16:39:05.584Z,31.86
2018-07-02T16:41:34.504Z,31.95
2018-07-02T16:44:03.213Z,31.33
2018-07-02T16:46:31.890Z,31.16
2018-07-02T16:49:00.422Z,30.91
2018-07-02T16:51:28.992Z,30.31
2018-07-02T16:53:57.614Z,30.28
2018-07-02T16:56:26.233Z,30.12
2018-07-02T16:58:55.779Z,30.12
2018-07-02T17:01:25.634Z,30.08
2018-07-02T17:03:54.987Z,29.94
2018-07-02T17:06:24.585Z,29.77
2018-07-02T17:08:53.267Z,29.57
2018-07-02T17:11:21.936Z,29.30
2018-07-02T17:13:50.615Z,29.13
2018-07-02T17:16:19.239Z,29.01
2018-07-02T17:18:48.812Z,28.97
2018-07-02T17:21:17.615Z,29.01
2018-07-02T17:23:46.223Z,28.98
2018-07-02T17:26:14.847Z,28.69
2018-07-02T17:28:43.539Z,28.58
2018-07-02T17:31:12.229Z,28.57
2018-07-02T17:33:40.896Z,28.61
2018-07-02T17:36:09.511Z,28.79
2018-07-02T17:38:38.141Z,28.75
2018-07-02T17:41:06.853Z,28.34
2018-07-02T17:43:35.473Z,28.06
2018-07-02T17:46:04.104Z,27.75
2018-07-02T17:48:33.685Z,27.55
2018-07-02T17:51:02.272Z,27.46
2018-07-02T17:53:30.841Z,27.40
2018-07-02T17:55:59.842Z,27.30
2018-07-02T17:58:28.408Z,27.00
2018-07-02T18:00:56.979Z,26.86
2018-07-02T18:03:25.665Z,26.59
2018-07-02T18:05:54.933Z,26.41
2018-07-02T18:08:23.449Z,26.26
2018-07-02T18:10:51.947Z,26.12
2018-07-02T18:13:20.706Z,26.00
2018-07-02T18:15:49.912Z,25.85
2018-07-02T18:18:18.472Z,25.78
2018-07-02T18:20:47.110Z,25.75
2018-07-02T18:23:15.597Z,25.70
2018-07-02T18:25:44.392Z,25.59
2018-07-02T18:28:12.953Z,25.53
2018-07-02T18:30:41.563Z,25.37
2018-07-02T18:33:10.081Z,25.35
2018-07-02T18:35:38.954Z,25.27
2018-07-02T18:38:07.584Z,25.20
2018-07-02T18:40:36.752Z,25.11
2018-07-02T18:43:05.546Z,25.04
2018-07-02T18:45:34.207Z,24.94
2018-07-02T18:48:02.809Z,24.92
2018-07-02T18:50:31.276Z,24.93
2018-07-02T18:52:59.809Z,24.92
2018-07-02T18:55:28.316Z,24.87
2018-07-02T18:57:57.076Z,24.83
2018-07-02T19:00:26.259Z,24.80
2018-07-02T19:02:54.851Z,24.73
2018-07-02T19:05:23.648Z,24.67
2018-07-02T19:07:52.811Z,24.57
2018-07-02T19:10:22.413Z,24.49
2018-07-02T19:12:52.311Z,24.39
2018-07-02T19:15:21.535Z,24.30
2018-07-02T19:17:50.311Z,24.23
2018-07-02T19:20:26.141Z,24.13
2018-07-02T19:22:59.859Z,24.08
2018-07-02T19:25:34.583Z,23.98
2018-07-02T19:28:06.935Z,23.88
2018-07-02T19:30:42.315Z,23.81
2018-07-02T19:33:11.604Z,23.74
2018-07-02T19:35:40.523Z,23.65
2018-07-02T19:38:09.244Z,23.60
2018-07-02T19:40:38.986Z,23.51
2018-07-02T19:43:07.889Z,23.43
2018-07-02T19:45:36.358Z,23.37
2018-07-02T19:48:05.721Z,23.31
2018-07-02T19:50:34.491Z,23.22
2018-07-02T19:53:04.166Z,23.17
2018-07-02T19:55:32.851Z,23.10
2018-07-02T19:58:01.703Z,23.02
2018-07-02T20:00:30.447Z,22.95
2018-07-02T20:02:59.477Z,22.87
2018-07-02T20:05:28.007Z,22.81
2018-07-02T20:07:56.721Z,22.80
2018-07-02T20:10:25.794Z,22.71
2018-07-02T20:12:54.362Z,22.63
2018-07-02T20:15:23.285Z,22.59
2018-07-02T20:17:52.363Z,22.54
2018-07-02T20:20:22.460Z,22.46
2018-07-02T20:22:51.802Z,22.38
2018-07-02T20:25:21.348Z,22.31
2018-07-02T20:27:51.518Z,22.27
2018-07-02T20:30:20.219Z,22.20
2018-07-02T20:32:49.497Z,22.16
2018-07-02T20:35:18.656Z,22.07
2018-07-02T20:37:48.252Z,22.04
2018-07-02T20:40:16.963Z,21.98
2018-07-02T20:42:46.411Z,21.95
2018-07-02T20:45:15.049Z,21.91
2018-07-02T20:47:43.640Z,21.90
2018-07-02T20:50:12.134Z,21.84
2018-07-02T20:52:40.682Z,21.78
2018-07-02T20:55:10.023Z,21.74
2018-07-02T20:57:38.683Z,21.70
2018-07-02T21:00:07.879Z,21.67
2018-07-02T21:02:36.425Z,21.62
2018-07-02T21:05:05.085Z,21.54
2018-07-02T21:07:33.643Z,21.50
2018-07-02T21:10:03.207Z,21.44
2018-07-02T21:12:31.807Z,21.40
2018-07-02T21:15:00.368Z,21.40
2018-07-02T21:17:28.977Z,21.35
2018-07-02T21:19:58.248Z,21.29
2018-07-02T21:22:26.766Z,21.29
2018-07-02T21:24:55.353Z,21.26
2018-07-02T21:27:24.126Z,21.22
2018-07-02T21:29:52.745Z,21.22
2018-07-02T21:32:21.779Z,21.16
2018-07-02T21:34:50.358Z,21.09
2018-07-02T21:37:19.467Z,21.06
2018-07-02T21:39:47.923Z,21.01
2018-07-02T21:42:18.062Z,20.96
2018-07-02T21:44:46.616Z,20.92
2018-07-02T21:47:15.144Z,20.85
2018-07-02T21:49:43.813Z,20.80
2018-07-02T21:52:12.379Z,20.81
2018-07-02T21:54:41.206Z,20.63
2018-07-02T21:57:09.735Z,20.67
2018-07-02T21:59:38.427Z,20.70
2018-07-02T22:02:07.142Z,20.75
2018-07-02T22:04:36.070Z,20.83
2018-07-02T22:07:04.834Z,20.91
2018-07-02T22:09:33.566Z,21.05
2018-07-02T22:12:02.214Z,21.19
2018-07-02T22:14:30.711Z,21.25
2018-07-02T22:16:59.468Z,21.24
2018-07-02T22:19:28.969Z,21.18
2018-07-02T22:21:57.470Z,21.18
2018-07-02T22:24:26.548Z,21.21
2018-07-02T22:26:56.115Z,21.25
2018-07-02T22:29:24.851Z,21.19
2018-07-02T22:31:53.885Z,21.17
2018-07-02T22:34:22.428Z,21.16
2018-07-02T22:36:50.945Z,21.10
2018-07-02T22:39:19.438Z,21.07
2018-07-02T22:41:48.029Z,20.95
2018-07-02T22:44:17.194Z,20.90
2018-07-02T22:46:46.805Z,20.84
2018-07-02T22:49:15.767Z,20.75
2018-07-02T22:51:44.789Z,20.69
2018-07-02T22:54:14.025Z,20.62
2018-07-02T22:56:43.466Z,20.60
2018-07-02T22:59:13.730Z,20.51
2018-07-02T23:01:42.294Z,20.49
2018-07-02T23:04:10.913Z,20.41
2018-07-02T23:06:39.465Z,20.34
2018-07-02T23:09:09.229Z,20.32
2018-07-02T23:11:38.816Z,20.24
2018-07-02T23:14:07.383Z,20.19
2018-07-02T23:16:36.073Z,20.11
2018-07-02T23:19:04.734Z,19.97
2018-07-02T23:21:34.166Z,19.69
2018-07-02T23:24:02.646Z,19.58
2018-07-02T23:26:31.316Z,19.67
2018-07-02T23:29:00.329Z,19.78
2018-07-02T23:31:28.781Z,19.81
2018-07-02T23:33:57.255Z,19.81
2018-07-02T23:36:25.716Z,19.80
2018-07-02T23:38:54.234Z,19.78
2018-07-02T23:41:23.372Z,19.76
2018-07-02T23:43:51.927Z,19.71
2018-07-02T23:46:20.517Z,19.73
2018-07-02T23:48:49.087Z,19.61
2018-07-02T23:51:17.567Z,19.55
2018-07-02T23:53:46.075Z,19.54
2018-07-02T23:56:14.635Z,19.51
2018-07-02T23:58:45.788Z,19.42
